Time;durP1;ratioP1;P1;durP2;ratioP2;P2;SDS_P1;SDS_P2;PMS_P1;PMS_P2;Temp;Humidity;BMP_temperature;BMP_pressure;BME280_temperature;BME280_humidity;BME280_pressure;Samples;Min_cycle;Max_cycle;Signal;HPM_P1;HPM_P2
2021/03/10 00:00:33;;;;;;;49.40;25.88;;;;;;;2.15;80.13;96381.09;5050805;28;20075;-72
2021/03/10 00:03:00;;;;;;;47.70;25.58;;;;;;;2.12;80.01;96387.78;5049994;28;20045;-72
2021/03/10 00:05:26;;;;;;;47.30;24.83;;;;;;;2.01;80.41;96394.19;5050602;28;20049;-73
2021/03/10 00:07:52;;;;;;;49.70;26.30;;;;;;;1.98;80.66;96392.03;5049857;28;20048;-73
2021/03/10 00:10:18;;;;;;;53.55;26.75;;;;;;;1.94;80.85;96389.09;5050393;28;20511;-73
2021/03/10 00:12:45;;;;;;;57.40;27.52;;;;;;;1.99;81.13;96385.63;5049529;28;20044;-74
2021/03/10 00:15:13;;;;;;;53.80;26.55;;;;;;;2.07;81.15;96390.47;5050248;28;20115;-74
2021/03/10 00:17:41;;;;;;;57.42;28.02;;;;;;;2.19;81.14;96384.84;5049887;28;20047;-74
2021/03/10 00:20:09;;;;;;;53.60;26.80;;;;;;;2.21;81.00;96396.97;5049776;28;20131;-74
2021/03/10 00:22:35;;;;;;;53.00;26.35;;;;;;;2.26;81.23;96386.25;5049947;28;20051;-74
2021/03/10 00:25:01;;;;;;;51.53;26.92;;;;;;;2.35;81.30;96386.53;5049858;28;20048;-74
2021/03/10 00:27:27;;;;;;;52.63;26.83;;;;;;;2.37;81.11;96395.13;5033886;28;20062;-74
2021/03/10 00:29:57;;;;;;;53.13;26.42;;;;;;;2.37;80.59;96389.75;5049174;28;20041;-74
2021/03/10 00:32:26;;;;;;;53.20;26.45;;;;;;;2.42;80.73;96386.28;5050247;28;20400;-74
2021/03/10 00:34:52;;;;;;;52.38;28.17;;;;;;;2.35;80.52;96387.34;5049234;28;20053;-74
2021/03/10 00:37:20;;;;;;;50.42;26.50;;;;;;;2.28;80.54;96397.53;5050051;28;20049;-74
2021/03/10 00:39:47;;;;;;;52.85;26.52;;;;;;;2.13;80.50;96392.09;5049536;28;20500;-74
2021/03/10 00:42:14;;;;;;;52.88;27.88;;;;;;;1.95;80.85;96388.00;5049818;28;20504;-74
2021/03/10 00:44:40;;;;;;;53.78;27.42;;;;;;;1.85;81.44;96387.16;5049722;28;20053;-74
2021/03/10 00:47:08;;;;;;;56.95;28.60;;;;;;;1.82;81.86;96394.66;5049333;28;20049;-74
2021/03/10 00:49:34;;;;;;;56.35;28.92;;;;;;;1.86;82.37;96383.41;5050114;28;20056;-74
2021/03/10 00:52:01;;;;;;;59.42;29.58;;;;;;;1.80;82.76;96386.06;5055600;28;20045;-75
2021/03/10 00:54:27;;;;;;;63.83;30.90;;;;;;;1.89;82.82;96389.06;5070426;28;20406;-75
2021/03/10 00:56:53;;;;;;;61.33;30.75;;;;;;;1.89;82.81;96388.25;5067640;28;20055;-75
2021/03/10 00:59:19;;;;;;;67.47;31.40;;;;;;;1.91;82.88;96386.09;5049821;28;20049;-74
2021/03/10 01:01:45;;;;;;;66.10;30.13;;;;;;;2.02;82.83;96382.38;5049435;28;20049;-74
2021/03/10 01:04:12;;;;;;;62.30;30.17;;;;;;;2.01;82.67;96380.78;5049443;28;20113;-74
2021/03/10 01:06:38;;;;;;;64.53;31.48;;;;;;;1.99;82.53;96386.41;5049606;28;20092;-75
2021/03/10 01:09:06;;;;;;;58.20;29.83;;;;;;;2.10;82.43;96379.22;5050334;28;20040;-74
2021/03/10 01:11:32;;;;;;;66.15;31.13;;;;;;;2.13;82.35;96375.97;5053688;28;20051;-74
2021/03/10 01:13:58;;;;;;;62.45;31.25;;;;;;;2.13;82.09;96373.28;5052675;28;20056;-74
2021/03/10 01:16:24;;;;;;;58.70;28.98;;;;;;;2.13;81.96;96375.16;5053198;28;20116;-74
2021/03/10 01:18:50;;;;;;;55.95;30.23;;;;;;;2.13;82.02;96373.28;5052906;28;20051;-74
2021/03/10 01:21:17;;;;;;;63.33;31.13;;;;;;;1.93;82.44;96378.59;5053767;28;20102;-74
2021/03/10 01:23:43;;;;;;;59.92;30.25;;;;;;;1.98;82.70;96375.91;5073543;28;20044;-74
2021/03/10 01:26:09;;;;;;;60.78;30.52;;;;;;;1.97;82.65;96369.75;5073588;28;20055;-74
2021/03/10 01:28:35;;;;;;;66.60;33.63;;;;;;;1.92;82.71;96367.03;5056788;28;20060;-74
2021/03/10 01:31:01;;;;;;;61.80;31.00;;;;;;;1.96;82.96;96367.31;5052861;28;20133;-73
2021/03/10 01:33:27;;;;;;;66.55;32.08;;;;;;;1.96;82.88;96370.00;5053095;28;20055;-74
2021/03/10 01:35:54;;;;;;;65.00;31.50;;;;;;;2.02;82.99;96371.63;5053077;28;20045;-74
2021/03/10 01:38:21;;;;;;;65.05;31.95;;;;;;;2.07;82.69;96361.72;5053092;28;20045;-74
2021/03/10 01:40:47;;;;;;;61.60;31.10;;;;;;;2.14;82.51;96358.81;5052647;28;20044;-74
2021/03/10 01:43:13;;;;;;;58.08;30.08;;;;;;;2.13;82.41;96357.16;5053032;28;20057;-74
2021/03/10 01:45:39;;;;;;;66.45;31.75;;;;;;;2.20;82.33;96352.38;5052354;28;20091;-74
2021/03/10 01:48:08;;;;;;;63.63;32.53;;;;;;;2.18;82.31;96349.13;5052714;28;20053;-74
2021/03/10 01:50:35;;;;;;;63.47;31.15;;;;;;;2.20;82.35;96351.56;5052380;28;20045;-74
2021/03/10 01:53:03;;;;;;;61.40;31.55;;;;;;;2.25;82.27;96349.72;5067657;28;20037;-74
2021/03/10 01:55:31;;;;;;;65.20;31.20;;;;;;;2.25;82.38;96349.72;5072360;28;20036;-74
2021/03/10 01:57:57;;;;;;;62.03;31.13;;;;;;;2.19;82.40;96355.31;5062036;28;20558;-74
2021/03/10 02:00:24;;;;;;;64.13;32.22;;;;;;;2.11;82.83;96353.97;5052247;28;20084;-74
2021/03/10 02:02:51;;;;;;;65.43;33.38;;;;;;;2.16;82.89;96348.59;5052219;28;20457;-74
2021/03/10 02:05:19;;;;;;;66.30;32.45;;;;;;;2.14;82.77;96356.13;5052611;28;20111;-74
2021/03/10 02:08:00;;;;;;;65.22;31.27;;;;;;;2.17;83.00;96352.09;5051892;28;20068;-74
2021/03/10 02:10:41;;;;;;;64.13;31.10;;;;;;;2.11;83.14;96342.41;5052813;28;20041;-74
2021/03/10 02:13:15;;;;;;;66.97;32.63;;;;;;;2.06;83.11;96351.25;5051658;28;20049;-74
2021/03/10 02:15:49;;;;;;;70.63;33.22;;;;;;;2.03;83.13;96349.06;5052349;28;20056;-74
2021/03/10 02:18:22;;;;;;;67.15;33.10;;;;;;;2.03;83.25;96349.06;5051803;28;20531;-74
2021/03/10 02:20:52;;;;;;;66.63;32.33;;;;;;;2.08;83.27;96341.03;5051348;28;20063;-74
2021/03/10 02:23:43;;;;;;;65.80;32.65;;;;;;;2.00;83.40;96349.63;5052123;28;20045;-74
2021/03/10 02:26:28;;;;;;;71.55;34.38;;;;;;;1.94;83.57;96342.63;5051232;28;20048;-74
2021/03/10 02:29:01;;;;;;;70.22;32.38;;;;;;;1.86;84.07;96335.06;5052021;28;20049;-74
2021/03/10 02:31:29;;;;;;;73.35;34.35;;;;;;;1.88;84.24;96333.75;5052032;28;20506;-74
2021/03/10 02:33:57;;;;;;;75.30;36.30;;;;;;;1.75;84.44;96332.34;5051332;28;20462;-74
2021/03/10 02:36:25;;;;;;;72.45;34.88;;;;;;;1.77;84.83;96338.25;5051886;28;20045;-74
2021/03/10 02:38:53;;;;;;;72.25;36.63;;;;;;;1.74;84.71;96338.78;5051397;28;20036;-74
2021/03/10 02:41:20;;;;;;;77.53;36.47;;;;;;;1.76;84.86;96335.81;5052191;28;20044;-73
2021/03/10 02:43:48;;;;;;;76.47;36.42;;;;;;;1.76;84.84;96331.25;5051351;28;20045;-73
2021/03/10 02:46:15;;;;;;;77.25;36.92;;;;;;;1.77;84.87;96332.88;5051658;28;20052;-73
2021/03/10 02:48:44;;;;;;;75.10;35.60;;;;;;;1.86;84.75;96332.38;5051649;28;20045;-73
2021/03/10 02:51:12;;;;;;;72.93;35.25;;;;;;;1.80;84.75;96332.34;5052421;28;20079;-73
2021/03/10 02:53:40;;;;;;;77.93;34.97;;;;;;;1.89;84.52;96337.22;5031935;28;20392;-73
2021/03/10 02:56:09;;;;;;;75.30;35.40;;;;;;;1.77;84.70;96338.25;5031049;28;20055;-76
2021/03/10 02:58:35;;;;;;;71.95;35.08;;;;;;;1.89;84.80;96337.22;5047942;28;20045;-73
2021/03/10 03:01:01;;;;;;;77.93;34.75;;;;;;;1.96;84.66;96330.53;5051068;28;20048;-74
2021/03/10 03:03:28;;;;;;;71.15;35.00;;;;;;;1.98;84.46;96333.75;5051936;28;20033;-73
2021/03/10 03:05:54;;;;;;;68.57;34.65;;;;;;;1.94;84.46;96339.94;5051032;28;20047;-74
2021/03/10 03:08:20;;;;;;;75.32;36.25;;;;;;;1.91;84.46;96333.19;5051295;28;20563;-73
2021/03/10 03:10:46;;;;;;;79.20;36.65;;;;;;;1.89;84.70;96334.56;5050997;28;20095;-74
2021/03/10 03:13:15;;;;;;;65.68;32.95;;;;;;;1.99;84.60;96334.59;5050977;28;20049;-74
2021/03/10 03:15:43;;;;;;;73.13;35.28;;;;;;;1.94;84.68;96338.06;5051247;28;20048;-74
2021/03/10 03:18:10;;;;;;;73.00;35.38;;;;;;;1.91;84.60;96343.13;5050551;28;20059;-74
2021/03/10 03:20:37;;;;;;;77.45;35.30;;;;;;;1.86;85.11;96340.44;5051461;28;20045;-74
2021/03/10 03:23:05;;;;;;;74.40;35.38;;;;;;;1.80;85.08;96343.09;5050613;28;20661;-74
2021/03/10 03:25:35;;;;;;;73.53;34.90;;;;;;;1.74;85.31;96340.66;5051837;28;20052;-74
2021/03/10 03:28:04;;;;;;;79.32;36.50;;;;;;;1.84;85.29;96343.38;5049797;28;20049;-74
2021/03/10 03:30:33;;;;;;;74.47;34.80;;;;;;;1.93;85.40;96338.31;5051239;28;20040;-74
2021/03/10 03:33:00;;;;;;;71.80;35.78;;;;;;;1.97;85.07;96348.25;5050030;28;20052;-74
2021/03/10 03:35:27;;;;;;;69.55;34.25;;;;;;;2.07;84.97;96348.28;5050663;28;20045;-74
2021/03/10 03:37:54;;;;;;;70.75;35.17;;;;;;;2.16;84.65;96345.09;5050607;28;20055;-73
2021/03/10 03:40:23;;;;;;;71.93;34.95;;;;;;;2.24;84.53;96341.88;5050222;28;20045;-74
2021/03/10 03:42:49;;;;;;;68.82;33.72;;;;;;;2.30;84.19;96349.72;5051210;28;20052;-74
2021/03/10 03:45:17;;;;;;;74.93;35.67;;;;;;;2.18;83.78;96354.50;5049726;28;20045;-74
2021/03/10 03:47:44;;;;;;;70.40;34.63;;;;;;;2.20;83.88;96351.56;5051093;28;20175;-74
2021/03/10 03:50:11;;;;;;;67.72;34.47;;;;;;;2.15;84.01;96354.25;5052869;28;20045;-74
2021/03/10 03:52:40;;;;;;;72.85;36.92;;;;;;;2.03;84.20;96357.94;5070245;28;20055;-74
2021/03/10 03:55:10;;;;;;;73.30;36.22;;;;;;;1.98;84.53;96359.81;5069875;28;20071;-74
2021/03/10 03:57:37;;;;;;;73.05;36.47;;;;;;;1.92;84.86;96360.84;5061834;28;20049;-73
2021/03/10 04:00:04;;;;;;;72.93;36.05;;;;;;;1.96;84.96;96351.22;5049980;28;20052;-74
2021/03/10 04:02:30;;;;;;;75.63;37.45;;;;;;;2.00;84.91;96360.38;5050294;28;20741;-74
2021/03/10 04:04:56;;;;;;;79.07;36.65;;;;;;;2.05;84.90;96361.19;5050689;28;20048;-74
2021/03/10 04:07:22;;;;;;;78.88;36.83;;;;;;;1.99;84.60;96350.69;5049398;28;20045;-74
2021/03/10 04:09:48;;;;;;;77.13;37.33;;;;;;;2.04;84.75;96356.09;5050953;28;20576;-74
2021/03/10 04:12:15;;;;;;;73.13;35.35;;;;;;;2.08;84.62;96355.28;5049375;28;20132;-74
2021/03/10 04:14:41;;;;;;;75.53;36.85;;;;;;;1.99;84.66;96356.06;5051035;28;20067;-74
2021/03/10 04:17:07;;;;;;;76.90;37.13;;;;;;;1.97;84.99;96358.19;5049287;28;20111;-73
2021/03/10 04:19:33;;;;;;;77.53;37.20;;;;;;;2.09;84.73;96362.28;5051402;28;20102;-74
2021/03/10 04:21:59;;;;;;;74.93;36.88;;;;;;;2.06;84.58;96362.81;5068945;28;20458;-74
2021/03/10 04:24:25;;;;;;;68.72;35.47;;;;;;;2.11;84.54;96356.63;5070092;28;20683;-74
2021/03/10 04:26:52;;;;;;;75.03;36.88;;;;;;;2.07;84.54;96366.28;5068984;28;20055;-74
2021/03/10 04:29:19;;;;;;;74.60;37.40;;;;;;;2.08;84.67;96359.84;5049382;28;20049;-74
2021/03/10 04:31:45;;;;;;;77.80;37.25;;;;;;;2.06;84.64;96359.31;5050404;28;20330;-74
2021/03/10 04:34:11;;;;;;;76.63;37.33;;;;;;;1.99;84.58;96356.06;5049065;28;20439;-74
2021/03/10 04:36:37;;;;;;;73.25;37.38;;;;;;;2.03;84.79;96360.63;5050513;28;20506;-74
2021/03/10 04:39:04;;;;;;;75.68;37.33;;;;;;;2.06;84.68;96356.63;5049203;28;20407;-74
2021/03/10 04:41:30;;;;;;;74.43;37.33;;;;;;;1.97;84.91;96363.56;5050574;28;20080;-74
2021/03/10 04:43:56;;;;;;;75.65;38.58;;;;;;;1.99;84.73;96362.25;5052065;28;20052;-74
2021/03/10 04:46:23;;;;;;;75.45;38.08;;;;;;;2.05;84.79;96355.00;5053887;28;20064;-74
2021/03/10 04:48:49;;;;;;;73.60;36.65;;;;;;;2.14;84.58;96366.88;5053981;28;20049;-74
2021/03/10 04:51:15;;;;;;;73.68;36.03;;;;;;;2.15;84.48;96368.47;5067561;28;20055;-74
2021/03/10 04:53:41;;;;;;;75.63;36.75;;;;;;;2.09;84.20;96373.03;5074198;28;20041;-74
2021/03/10 04:56:07;;;;;;;72.22;36.70;;;;;;;2.16;84.30;96371.97;5072916;28;20046;-74
2021/03/10 04:58:33;;;;;;;74.97;37.30;;;;;;;2.16;84.12;96378.16;5058905;28;20049;-74
2021/03/10 05:00:59;;;;;;;70.93;36.88;;;;;;;2.15;84.18;96381.91;5053107;28;20045;-74
2021/03/10 05:03:25;;;;;;;72.82;36.90;;;;;;;2.16;84.24;96383.53;5053877;28;20048;-74
2021/03/10 05:05:51;;;;;;;72.63;36.13;;;;;;;2.17;84.18;96378.94;5053189;28;20053;-74
2021/03/10 05:08:17;;;;;;;76.50;38.83;;;;;;;2.11;84.03;96383.50;5053713;28;20435;-74
2021/03/10 05:10:43;;;;;;;80.80;37.80;;;;;;;2.15;84.20;96381.91;5053375;28;20128;-74
2021/03/10 05:13:09;;;;;;;76.18;37.83;;;;;;;2.15;84.23;96381.91;5053163;28;20037;-74
2021/03/10 05:15:35;;;;;;;71.80;36.70;;;;;;;2.07;84.35;96390.47;5069072;28;20047;-73
2021/03/10 05:18:01;;;;;;;78.80;39.83;;;;;;;1.99;84.54;96383.72;5072778;28;20052;-73
2021/03/10 05:20:28;;;;;;;80.88;39.88;;;;;;;1.93;85.01;96381.25;5063368;28;20049;-74
2021/03/10 05:22:54;;;;;;;78.70;38.35;;;;;;;1.92;85.00;96377.78;5053960;28;20049;-73
2021/03/10 05:25:20;;;;;;;80.35;39.28;;;;;;;1.85;85.21;96392.53;5053905;28;20049;-74
2021/03/10 05:27:46;;;;;;;86.20;41.33;;;;;;;1.85;85.42;96387.16;5052298;28;20052;-73
2021/03/10 05:30:14;;;;;;;80.63;40.08;;;;;;;1.85;85.62;96389.84;5053616;28;20075;-73
2021/03/10 05:32:40;;;;;;;81.85;40.33;;;;;;;1.81;85.75;96392.22;5052546;28;20064;-74
2021/03/10 05:35:07;;;;;;;89.20;42.20;;;;;;;1.86;85.78;96386.88;5053003;28;20556;-73
2021/03/10 05:37:34;;;;;;;81.43;41.35;;;;;;;1.81;85.79;96387.66;5052818;28;20048;-74
2021/03/10 05:40:00;;;;;;;80.30;41.53;;;;;;;1.79;85.84;96389.81;5053144;28;20049;-74
2021/03/10 05:42:26;;;;;;;88.00;41.40;;;;;;;1.88;85.76;96394.66;5052595;28;20076;-73
2021/03/10 05:44:52;;;;;;;83.25;38.95;;;;;;;1.93;85.63;96395.53;5052633;28;20052;-74
2021/03/10 05:47:18;;;;;;;76.60;40.00;;;;;;;1.95;85.46;96403.31;5052672;28;20049;-73
2021/03/10 05:49:45;;;;;;;82.13;39.33;;;;;;;2.03;85.32;96400.09;5052095;28;20056;-73
2021/03/10 05:52:13;;;;;;;81.32;39.30;;;;;;;2.05;85.08;96395.31;5052492;28;20075;-74
2021/03/10 05:54:42;;;;;;;82.90;41.60;;;;;;;2.05;85.17;96400.69;5051157;28;20389;-73
2021/03/10 05:57:08;;;;;;;81.88;40.35;;;;;;;2.05;85.08;96400.69;5052688;28;20049;-73
2021/03/10 05:59:35;;;;;;;80.38;41.22;;;;;;;1.92;85.40;96403.81;5052078;28;20052;-73
2021/03/10 06:02:01;;;;;;;79.65;40.92;;;;;;;1.93;85.35;96405.44;5052453;28;20075;-74
2021/03/10 06:04:37;;;;;;;79.15;40.38;;;;;;;1.98;85.53;96402.78;5052301;28;20403;-73
2021/03/10 06:07:03;;;;;;;80.97;40.63;;;;;;;1.99;85.32;96412.47;5051922;28;20124;-73
2021/03/10 06:09:29;;;;;;;83.95;41.33;;;;;;;1.97;85.43;96406.53;5052967;28;20102;-73
2021/03/10 06:11:57;;;;;;;80.50;40.88;;;;;;;2.08;85.29;96398.25;5052013;28;20455;-79
2021/03/10 06:14:24;;;;;;;79.88;40.67;;;;;;;2.06;85.25;96404.97;5052270;28;20043;-79
2021/03/10 06:17:00;;;;;;;80.95;40.83;;;;;;;2.03;85.35;96400.09;5052161;28;20068;-80
2021/03/10 06:19:26;;;;;;;82.28;39.72;;;;;;;2.06;85.46;96399.59;5052309;28;20048;-79
2021/03/10 06:21:52;;;;;;;78.28;40.20;;;;;;;2.10;85.34;96406.06;5052121;28;20048;-79
2021/03/10 06:24:18;;;;;;;82.10;40.42;;;;;;;2.10;85.27;96416.81;5051978;28;20056;-79
2021/03/10 06:26:54;;;;;;;82.70;41.45;;;;;;;2.14;85.23;96417.91;5052338;28;20041;-79
2021/03/10 06:29:21;;;;;;;78.82;39.72;;;;;;;2.20;85.12;96426.78;5051552;28;20578;-79
2021/03/10 06:31:47;;;;;;;79.35;39.33;;;;;;;2.14;85.14;96434.03;5052684;28;20105;-79
2021/03/10 06:34:15;;;;;;;79.80;38.83;;;;;;;1.98;85.00;96435.00;5050015;28;20061;-80
2021/03/10 06:36:43;;;;;;;78.25;39.88;;;;;;;1.79;85.52;96430.09;5053018;28;20041;-79
2021/03/10 06:39:10;;;;;;;86.43;41.92;;;;;;;1.76;85.89;96435.97;5051102;28;20059;-80
2021/03/10 06:41:38;;;;;;;84.13;40.65;;;;;;;1.70;86.47;96439.69;5052738;28;20045;-79
2021/03/10 06:44:15;;;;;;;94.72;42.92;;;;;;;1.75;86.17;96447.78;5051999;28;20049;-79
2021/03/10 06:46:54;;;;;;;91.40;40.22;;;;;;;1.75;86.14;96442.41;5051711;28;20045;-80
2021/03/10 06:49:21;;;;;;;89.22;41.30;;;;;;;1.74;85.98;96450.72;5051810;28;20049;-81
2021/03/10 06:51:51;;;;;;;86.57;41.88;;;;;;;1.74;86.08;96462.28;5051956;28;20102;-80
2021/03/10 06:54:18;;;;;;;88.88;41.30;;;;;;;1.80;86.16;96466.59;5052618;28;20053;-81
2021/03/10 06:56:44;;;;;;;84.82;40.55;;;;;;;1.73;85.93;96460.66;5051626;28;20044;-79
2021/03/10 06:59:10;;;;;;;91.65;42.65;;;;;;;1.79;86.15;96467.69;5052306;28;20096;-79
2021/03/10 07:01:38;;;;;;;96.00;41.70;;;;;;;1.78;86.10;96468.75;5051822;28;20057;-79
2021/03/10 07:04:05;;;;;;;89.93;42.03;;;;;;;1.81;86.24;96470.09;5052205;28;20056;-79
2021/03/10 07:06:34;;;;;;;93.95;41.65;;;;;;;1.78;86.62;96466.06;5051267;28;20578;-79
2021/03/10 07:09:02;;;;;;;98.05;44.22;;;;;;;1.83;86.56;96476.84;5051429;28;20053;-79
2021/03/10 07:11:28;;;;;;;101.35;44.15;;;;;;;1.90;86.70;96470.41;5051815;28;20041;-79
2021/03/10 07:13:55;;;;;;;97.70;43.90;;;;;;;2.00;86.51;96470.47;5050928;28;20051;-79
2021/03/10 07:16:21;;;;;;;88.00;40.03;;;;;;;2.08;86.21;96478.03;5051237;28;20058;-80
2021/03/10 07:18:48;;;;;;;86.45;40.55;;;;;;;2.08;85.82;96486.09;5050544;28;20711;-79
2021/03/10 07:21:26;;;;;;;86.10;41.97;;;;;;;2.06;85.94;96486.34;5051099;28;20041;-79
2021/03/10 07:23:55;;;;;;;88.82;41.20;;;;;;;2.14;86.14;96493.13;5050684;28;20049;-79
2021/03/10 07:26:23;;;;;;;88.45;43.38;;;;;;;2.19;85.93;96495.81;5050908;28;20056;-79
2021/03/10 07:28:52;;;;;;;96.95;44.80;;;;;;;2.16;85.96;96496.34;5050807;28;20067;-83
2021/03/10 07:31:21;;;;;;;95.50;43.47;;;;;;;2.23;86.19;96501.47;5050569;28;20504;-79
2021/03/10 07:33:54;;;;;;;90.60;42.58;;;;;;;2.33;86.03;96496.97;5050942;28;20041;-79
2021/03/10 07:36:36;;;;;;;89.15;42.28;;;;;;;2.33;85.76;96499.66;5048670;28;20571;-78
2021/03/10 07:39:04;;;;;;;82.63;40.30;;;;;;;2.43;85.99;96506.16;5051054;28;20102;-79
2021/03/10 07:41:36;;;;;;;85.97;40.10;;;;;;;2.51;85.86;96508.34;5050385;28;20052;-79
2021/03/10 07:44:02;;;;;;;86.45;41.50;;;;;;;2.57;85.86;96516.16;5050833;28;20049;-78
2021/03/10 07:46:30;;;;;;;86.30;41.67;;;;;;;2.70;85.72;96508.66;5050478;28;20045;-79
2021/03/10 07:48:57;;;;;;;81.32;40.45;;;;;;;2.80;85.51;96514.88;5050430;28;20402;-79
2021/03/10 07:51:28;;;;;;;77.53;39.22;;;;;;;2.74;84.94;96507.06;5050279;28;20051;-77
2021/03/10 07:53:56;;;;;;;77.95;37.78;;;;;;;2.86;84.99;96511.13;5049635;28;20049;-78
2021/03/10 07:56:23;;;;;;;77.43;39.30;;;;;;;2.95;85.10;96514.13;5050655;28;20090;-79
2021/03/10 07:58:50;;;;;;;78.70;38.40;;;;;;;2.91;84.28;96513.03;5049896;28;20057;-78
2021/03/10 08:01:16;;;;;;;81.68;40.55;;;;;;;2.94;84.21;96522.47;5043798;28;20052;-78
2021/03/10 08:03:42;;;;;;;75.57;37.60;;;;;;;3.12;84.53;96525.47;5010111;28;20038;-77
2021/03/10 08:06:10;;;;;;;73.22;36.92;;;;;;;3.36;84.69;96525.78;5010502;28;20054;-77
2021/03/10 08:08:37;;;;;;;77.13;35.95;;;;;;;3.31;82.84;96523.06;5010379;28;20046;-77
2021/03/10 08:11:13;;;;;;;71.70;34.80;;;;;;;3.28;83.82;96520.91;5010165;28;20051;-80
2021/03/10 08:13:40;;;;;;;70.95;33.80;;;;;;;3.43;83.94;96522.00;5010520;28;20052;-78
2021/03/10 08:16:09;;;;;;;59.80;31.75;;;;;;;3.47;82.20;96525.78;5009732;28;20121;-77
2021/03/10 08:18:36;;;;;;;64.60;33.20;;;;;;;3.36;81.81;96530.34;5010632;28;20050;-78
2021/03/10 08:21:10;;;;;;;67.55;32.60;;;;;;;3.44;82.67;96526.31;5036331;28;20496;-78
2021/03/10 08:23:36;;;;;;;63.22;32.42;;;;;;;3.45;82.34;96525.25;5050632;28;20102;-78
2021/03/10 08:26:04;;;;;;;60.35;32.15;;;;;;;3.30;81.64;96526.03;5049146;28;20041;-78
2021/03/10 08:28:35;;;;;;;66.85;33.10;;;;;;;3.48;81.82;96533.59;5034850;28;20516;-77
2021/03/10 08:31:02;;;;;;;65.45;32.50;;;;;;;3.52;81.92;96533.88;5029838;28;20073;-74
2021/03/10 08:33:29;;;;;;;66.60;34.47;;;;;;;3.43;81.63;96541.66;5029674;28;20041;-78
2021/03/10 08:35:55;;;;;;;64.78;33.33;;;;;;;3.45;81.84;96547.59;5030286;28;20052;-77
2021/03/10 08:38:21;;;;;;;67.88;34.58;;;;;;;3.32;81.84;96543.53;5030031;28;20056;-77
2021/03/10 08:40:48;;;;;;;71.70;34.72;;;;;;;3.30;82.25;96543.00;5030677;28;20516;-78
2021/03/10 08:43:17;;;;;;;75.82;36.25;;;;;;;3.39;82.73;96538.72;5029065;28;20041;-77
2021/03/10 08:45:44;;;;;;;72.13;36.83;;;;;;;3.30;82.87;96536.81;5030559;28;20042;-77
2021/03/10 08:48:11;;;;;;;80.20;38.03;;;;;;;3.29;83.31;96536.00;5029021;28;20046;-78
2021/03/10 08:50:39;;;;;;;69.28;34.42;;;;;;;3.46;83.13;96541.13;5039868;28;20041;-77
2021/03/10 08:53:06;;;;;;;69.85;34.80;;;;;;;3.46;82.80;96534.94;5048184;28;20059;-77
2021/03/10 08:55:32;;;;;;;76.60;36.83;;;;;;;3.58;82.73;96543.56;5049642;28;20045;-77
2021/03/10 08:58:00;;;;;;;70.88;35.45;;;;;;;3.60;82.55;96546.78;5038961;28;20049;-78
2021/03/10 09:00:28;;;;;;;65.30;33.80;;;;;;;3.60;82.45;96546.78;5013154;28;20041;-77
2021/03/10 09:02:55;;;;;;;67.57;35.50;;;;;;;3.62;81.90;96550.03;5030019;28;20054;-77
2021/03/10 09:05:26;;;;;;;66.40;34.90;;;;;;;3.61;81.75;96551.91;5028794;28;20049;-77
2021/03/10 09:07:53;;;;;;;71.30;36.10;;;;;;;3.54;82.55;96553.25;5030206;28;20473;-77
2021/03/10 09:10:21;;;;;;;65.07;33.65;;;;;;;3.58;81.60;96548.94;5030074;28;20107;-78
2021/03/10 09:12:49;;;;;;;69.47;34.47;;;;;;;3.52;81.95;96552.72;5029957;28;20099;-76
2021/03/10 09:15:17;;;;;;;69.00;34.88;;;;;;;3.59;82.17;96555.94;5029110;28;20045;-77
2021/03/10 09:17:44;;;;;;;65.93;34.80;;;;;;;3.58;82.15;96557.03;5029594;28;20045;-77
2021/03/10 09:20:20;;;;;;;68.40;34.47;;;;;;;3.59;82.76;96556.75;5035075;28;20055;-77
2021/03/10 09:22:47;;;;;;;70.63;34.15;;;;;;;3.63;82.80;96551.66;5048160;28;20041;-77
2021/03/10 09:25:15;;;;;;;68.72;33.08;;;;;;;3.60;82.61;96558.38;5049403;28;20423;-77
2021/03/10 09:27:41;;;;;;;36.10;19.73;;;;;;;3.29;79.10;96557.53;5040272;28;20136;-77
2021/03/10 09:30:10;;;;;;;35.40;18.05;;;;;;;3.19;79.17;96554.81;5030731;28;20045;-77
2021/03/10 09:32:44;;;;;;;38.22;20.33;;;;;;;3.20;80.45;96542.97;5032714;28;20068;-78
2021/03/10 09:35:17;;;;;;;50.15;23.45;;;;;;;3.34;81.62;96548.63;5033032;28;20045;-77
2021/03/10 09:37:45;;;;;;;46.58;23.35;;;;;;;3.43;81.77;96547.03;5033082;28;20045;-77
2021/03/10 09:40:13;;;;;;;51.17;24.80;;;;;;;3.53;82.61;96557.03;5032534;28;20060;-77
2021/03/10 09:42:39;;;;;;;48.25;23.90;;;;;;;3.63;82.47;96557.03;5033521;28;20041;-78
2021/03/10 09:45:06;;;;;;;54.78;26.92;;;;;;;3.80;82.32;96562.94;5032050;28;20050;-78
2021/03/10 09:47:32;;;;;;;57.83;28.13;;;;;;;3.91;82.15;96559.19;5033521;28;20049;-78
2021/03/10 09:50:00;;;;;;;52.17;27.00;;;;;;;3.95;80.57;96561.34;5036761;28;20099;-78
2021/03/10 09:52:34;;;;;;;56.45;29.00;;;;;;;3.96;81.77;96560.25;5050879;28;20044;-79
2021/03/10 09:55:01;;;;;;;59.85;29.17;;;;;;;4.01;80.95;96563.75;5053199;28;20125;-78
2021/03/10 09:57:28;;;;;;;63.28;31.60;;;;;;;4.07;81.92;96562.69;5066126;28;20132;-79
2021/03/10 09:59:56;;;;;;;62.20;32.03;;;;;;;4.00;80.48;96574.81;5052405;28;20068;-80
2021/03/10 10:02:23;;;;;;;69.35;33.30;;;;;;;3.96;81.28;96565.63;5050832;28;20045;-78
2021/03/10 10:04:58;;;;;;;66.38;33.13;;;;;;;4.09;81.85;96567.81;5052546;28;20581;-77
2021/03/10 10:07:26;;;;;;;67.70;33.80;;;;;;;4.18;82.38;96563.50;5051619;28;20045;-78
2021/03/10 10:09:53;;;;;;;65.57;32.33;;;;;;;4.30;82.67;96564.00;5052898;28;20131;-78
2021/03/10 10:12:20;;;;;;;64.75;32.17;;;;;;;4.37;82.41;96567.22;5051622;28;20398;-78
2021/03/10 10:14:46;;;;;;;61.58;31.17;;;;;;;4.38;81.94;96568.81;5052811;28;20047;-78
2021/03/10 10:17:13;;;;;;;61.08;30.08;;;;;;;4.31;79.80;96562.91;5051524;28;20092;-77
2021/03/10 10:19:40;;;;;;;53.30;29.73;;;;;;;4.34;79.26;96562.38;5054066;28;20041;-79
2021/03/10 10:22:06;;;;;;;52.20;28.75;;;;;;;4.15;79.10;96553.25;5070655;28;20045;-78
2021/03/10 10:24:32;;;;;;;55.85;29.67;;;;;;;4.22;80.00;96559.16;5072920;28;20617;-78
2021/03/10 10:26:59;;;;;;;64.35;32.30;;;;;;;4.22;80.42;96553.75;5069895;28;20503;-77
2021/03/10 10:29:25;;;;;;;60.72;29.80;;;;;;;4.34;80.27;96562.38;5052312;28;20519;-78
2021/03/10 10:31:52;;;;;;;58.78;30.15;;;;;;;4.57;80.97;96571.75;5052761;28;20045;-78
2021/03/10 10:34:18;;;;;;;55.55;29.17;;;;;;;4.80;80.60;96564.91;5050982;28;20544;-78
2021/03/10 10:36:44;;;;;;;56.70;27.80;;;;;;;4.95;79.56;96572.94;5052417;28;20059;-77
2021/03/10 10:39:10;;;;;;;53.28;28.75;;;;;;;5.08;78.70;96576.16;5050871;28;20051;-79
2021/03/10 10:41:36;;;;;;;51.67;27.67;;;;;;;5.04;76.70;96569.69;5052082;28;20045;-78
2021/03/10 10:44:03;;;;;;;52.38;28.50;;;;;;;5.02;76.39;96567.28;5050974;28;20446;-79
2021/03/10 10:46:29;;;;;;;50.78;26.88;;;;;;;5.14;76.83;96570.44;5051982;28;20114;-78
2021/03/10 10:48:55;;;;;;;51.40;27.20;;;;;;;5.24;75.52;96561.50;5051490;28;20045;-78
2021/03/10 10:51:22;;;;;;;48.67;26.38;;;;;;;5.29;75.37;96566.88;5050826;28;20811;-77
2021/03/10 10:53:48;;;;;;;51.40;27.75;;;;;;;5.32;74.82;96560.09;5051464;28;20560;-78
2021/03/10 10:56:14;;;;;;;51.72;27.17;;;;;;;5.26;75.42;96559.31;5050546;28;20049;-77
2021/03/10 10:58:40;;;;;;;50.83;27.73;;;;;;;5.33;75.17;96559.81;5052037;28;20052;-77
2021/03/10 11:01:07;;;;;;;49.33;27.85;;;;;;;5.42;74.72;96566.22;5050355;28;20048;-76
2021/03/10 11:03:33;;;;;;;51.53;27.25;;;;;;;5.67;75.76;96556.34;5052076;28;20124;-77
2021/03/10 11:06:01;;;;;;;44.38;25.67;;;;;;;5.93;74.43;96549.69;5050696;28;20045;-78
2021/03/10 11:08:27;;;;;;;48.47;26.42;;;;;;;5.91;73.05;96551.03;5051738;28;20115;-77
2021/03/10 11:10:53;;;;;;;43.25;24.13;;;;;;;5.79;71.91;96554.09;5050980;28;20052;-77
2021/03/10 11:13:19;;;;;;;46.95;26.45;;;;;;;5.71;72.72;96552.00;5050354;28;20053;-77
2021/03/10 11:15:45;;;;;;;49.83;25.95;;;;;;;5.86;73.07;96549.19;5051322;28;20051;-77
2021/03/10 11:18:11;;;;;;;45.03;24.27;;;;;;;6.04;72.99;96538.78;5050466;28;20452;-77
2021/03/10 11:20:37;;;;;;;43.10;24.00;;;;;;;6.11;70.21;96539.25;5051298;28;20048;-77
2021/03/10 11:23:03;;;;;;;39.75;23.25;;;;;;;6.19;69.74;96539.44;5050955;28;20080;-77
2021/03/10 11:25:29;;;;;;;38.90;21.40;;;;;;;6.08;69.04;96545.25;5051585;28;20044;-77